Aviation Digital Data Service (ADDS)

Output produced by METARs form (1317 UTC 15 November 2018)
found at http://www.aviationweather.gov/metar/data/
 
TAF SKBQ 151100Z 1512/1612 VRB02KT 9999 SCT015 SCT080 
     BECMG 1515/1517 35012KT 
     PROB40 
     TEMPO 1518/1522 7000 TSRA SCT015CB TX33/1518Z TN25/1610Z
       
TAF SKBO 151100Z 1512/1612 VRB02KT 9999 SCT016 
     BECMG 1515/1517 29012KT 
     PROB40 
     TEMPO 1520/1524 4000 TSRA SCT015CB SCT017 
     BECMG 1600/1602 VRB02KT TX21/1518Z TN08/1611Z
       
TAF SKBG 151100Z 1512/1612 00000KT 9999 SCT010 SCT080 
     TEMPO 1512/1514 0200 DZ FG VV/// 
     BECMG 1514/1516 34010KT SCT016 
     TEMPO 1519/1522 5000 DZ SCT010 BKN070 
     BECMG 1600/1602 00000KT TX27/1518Z TN18/1611Z
       
TAF SKCL 151100Z 1512/1612 VRB02KT 9999 SCT020 SCT080 
     TEMPO 1512/1514 2000 BCFG SCT015 
     BECMG 1517/1519 33012KT 
     TEMPO 1521/1602 5000 TSRA SCT015CB 
     BECMG 1602/1604 VRB02KT TX31/1519Z TN19/1611Z
       
TAF SKCG 151100Z 1512/1612 VRB02KT 9999 FEW017 SCT080 
     BECMG 1514/1516 34012KT 
     PROB30 
     TEMPO 1519/1522 6000 RADZ SCT015CB 
     BECMG 1602/1604 VRB02KT TX33/1518Z TN24/1611Z
       
TAF SKCC 151100Z 1512/1612 00000KT 9999 SCT015 
     BECMG 1514/1516 36012KT 
     TEMPO 1601/1605 4000 TSRA SCT015CB TX31/1518Z TN23/1611Z
       
TAF SKLT 151100Z 1512/1612 VRB02KT 9999 SCT015 BKN080 
     TEMPO 1512/1514 5000 DZRA BR 
     TEMPO 1519/1522 6000 TSRA SCT015CB BKN080 TX32/1519Z TN23/1611Z
       
TAF SKRG 151100Z 1512/1612 00000KT 9999 SCT015 SCT080 
     TEMPO 1512/1514 4000 BCFG DZ BKN006 
     BECMG 1514/1516 12011KT SCT017 
     TEMPO 1521/1601 3000 TSRA SCT015CB SCT017 
     BECMG 1601/1603 VRB02KT 
     TEMPO 1608/1612 5000 BCFG BKN007 TX23/1518Z TN13/1611Z
       
TAF SKPE 151100Z 1512/1612 VRB02KT 9999 SCT015 SCT080 
     TEMPO 1512/1514 3000 BCFG BKN005 
     BECMG 1514/1516 29010KT 
     TEMPO 1519/1522 5000 TSRA SCT015CB 
     BECMG 1601/1603 VRB02KT TX27/1519Z TN18/1611Z
       
TAF SKSP 151100Z 1512/1612 06010KT 9999 FEW017 TX32/1519Z TN26/1611Z